Appling, Georgia
Current Conditions -  °F | °C
As of 9:35 AM on Friday 28 Nov 2014 (Local Time) from KHQU Reporting Station
Clear Clear  
Wind Chill:   Ceiling: Unl
Heat Index:   Visibility: 10mi
Dew Point:   Wind: 5mph
Humidity: 76%   Direction: 30°NNE
Pressure: 30.46"   Gusts: NA
Location:  33.55°N, 82.32°W
Report Text: KHQU 281435Z AUTO 03004KT 10SM CLR 04/00 A3046 RMK AO1 T00390001
Loading
Personal Weather Stations






























Interactive Weather Map New forecast layout! Learn more

10-Day Weather Forecast

Advertisements
Track Severe Weather on mobile